Time;durP1;ratioP1;P1;durP2;ratioP2;P2;SDS_P1;SDS_P2;PMS_P1;PMS_P2;Temp;Humidity;BMP_temperature;BMP_pressure;BME280_temperature;BME280_humidity;BME280_pressure;Samples;Min_cycle;Max_cycle;Signal;HPM_P1;HPM_P2
2022/08/22 00:02:31;;;;;;;80.28;57.40;;;21.60;47.80;;;;;;4854228;29;19924;-80
2022/08/22 00:05:25;;;;;;;86.53;58.10;;;21.60;47.90;;;;;;4853430;29;20045;-80
2022/08/22 00:07:51;;;;;;;80.65;57.90;;;21.60;47.90;;;;;;4838360;29;20034;-82
2022/08/22 00:10:47;;;;;;;80.97;60.75;;;21.60;47.90;;;;;;4868357;29;20071;-81
2022/08/22 00:13:21;;;;;;;86.72;60.78;;;21.60;47.90;;;;;;4795143;29;20095;-80
2022/08/22 00:16:07;;;;;;;89.63;62.70;;;21.60;48.10;;;;;;4780414;29;20519;-80
2022/08/22 00:18:54;;;;;;;87.43;61.70;;;21.50;48.00;;;;;;4795620;29;20043;-78
2022/08/22 00:21:42;;;;;;;88.45;62.30;;;21.50;48.10;;;;;;4796016;29;20129;-79
2022/08/22 00:24:16;;;;;;;88.38;63.33;;;21.50;48.20;;;;;;4796808;29;20126;-80
2022/08/22 00:26:59;;;;;;;89.88;64.57;;;21.50;48.10;;;;;;4877063;29;20404;-80
2022/08/22 00:29:33;;;;;;;86.65;61.60;;;21.50;48.30;;;;;;4851252;29;20092;-79
2022/08/22 00:32:17;;;;;;;90.38;63.55;;;21.50;48.40;;;;;;4870981;29;20490;-79
2022/08/22 00:34:57;;;;;;;93.72;63.60;;;21.50;48.40;;;;;;4886376;29;20037;-79
2022/08/22 00:37:43;;;;;;;86.63;61.13;;;21.50;48.40;;;;;;4873662;29;20131;-80
2022/08/22 00:40:25;;;;;;;91.93;62.92;;;21.50;48.60;;;;;;4887920;29;20123;-79
2022/08/22 00:43:09;;;;;;;90.07;62.55;;;21.40;48.40;;;;;;4871078;29;20084;-79
2022/08/22 00:45:53;;;;;;;88.88;62.03;;;21.40;49.00;;;;;;4886431;29;20039;-80
2022/08/22 00:48:25;;;;;;;87.88;62.42;;;21.40;48.40;;;;;;4887839;29;20498;-80
2022/08/22 00:51:24;;;;;;;88.65;59.33;;;21.40;48.60;;;;;;4942480;28;20043;-79
2022/08/22 00:54:06;;;;;;;82.82;59.55;;;21.40;48.70;;;;;;4866516;29;20036;-79
2022/08/22 00:56:37;;;;;;;86.45;59.38;;;21.40;48.70;;;;;;4882909;29;20546;-79
2022/08/22 00:59:23;;;;;;;86.50;59.78;;;21.40;48.80;;;;;;4871835;29;20041;-80
2022/08/22 01:01:55;;;;;;;91.10;60.55;;;21.40;48.80;;;;;;4851657;29;20053;-80
2022/08/22 01:04:27;;;;;;;84.90;57.85;;;21.40;48.80;;;;;;4870073;29;20469;-81
2022/08/22 01:07:02;;;;;;;87.47;57.85;;;21.30;48.80;;;;;;4868121;29;20041;-81
2022/08/22 01:09:55;;;;;;;81.13;58.00;;;21.30;48.90;;;;;;4867469;29;20033;-78
2022/08/22 01:12:31;;;;;;;78.30;57.22;;;21.30;48.90;;;;;;4882755;29;20048;-78
2022/08/22 01:15:04;;;;;;;79.13;55.58;;;21.30;49.10;;;;;;4866307;29;20528;-79
2022/08/22 01:18:00;;;;;;;76.68;54.45;;;21.30;48.90;;;;;;4883068;29;20068;-80
2022/08/22 01:20:50;;;;;;;74.45;55.17;;;21.30;49.10;;;;;;4885238;29;20088;-80
2022/08/22 01:23:40;;;;;;;79.53;56.17;;;21.30;49.00;;;;;;4883617;29;20044;-80
2022/08/22 01:26:25;;;;;;;78.57;54.42;;;21.30;49.20;;;;;;4883663;29;20576;-81
2022/08/22 01:29:09;;;;;;;74.05;52.05;;;21.30;49.20;;;;;;4883795;29;20040;-80
2022/08/22 01:31:39;;;;;;;77.90;56.50;;;21.30;49.20;;;;;;4965448;28;20050;-84
2022/08/22 01:34:49;;;;;;;73.28;53.88;;;21.30;49.50;;;;;;4931802;28;20054;-79
2022/08/22 01:37:38;;;;;;;74.13;53.90;;;21.30;50.00;;;;;;4872141;29;20068;-79
2022/08/22 01:40:22;;;;;;;76.82;52.95;;;21.20;50.50;;;;;;4888459;29;20041;-81
2022/08/22 01:43:03;;;;;;;73.57;52.13;;;21.20;51.80;;;;;;4888129;29;20055;-80
2022/08/22 01:46:07;;;;;;;81.18;54.28;;;21.10;51.60;;;;;;4873166;29;20423;-80
2022/08/22 01:48:51;;;;;;;75.88;53.85;;;21.10;52.10;;;;;;4887863;29;20040;-80
2022/08/22 01:51:30;;;;;;;74.07;52.28;;;21.10;52.90;;;;;;4869954;29;20053;-80
2022/08/22 01:54:09;;;;;;;73.50;52.83;;;21.00;54.10;;;;;;4888640;29;20128;-80
2022/08/22 01:56:41;;;;;;;75.55;51.20;;;21.00;52.90;;;;;;4888533;29;20040;-81
2022/08/22 01:59:19;;;;;;;74.03;51.95;;;21.00;53.10;;;;;;4857678;29;20037;-79
2022/08/22 02:02:09;;;;;;;72.35;51.53;;;21.10;53.70;;;;;;4887717;29;20055;-79
2022/08/22 02:04:58;;;;;;;70.22;52.08;;;21.00;54.40;;;;;;4888140;29;20029;-79
2022/08/22 02:07:39;;;;;;;72.75;52.00;;;21.00;59.10;;;;;;4888180;29;20551;-79
2022/08/22 02:10:21;;;;;;;73.45;51.10;;;20.90;55.00;;;;;;4887881;29;20762;-79
2022/08/22 02:13:13;;;;;;;74.82;53.80;;;21.00;55.90;;;;;;4867418;29;20032;-79
2022/08/22 02:15:45;;;;;;;81.78;54.25;;;20.90;55.30;;;;;;4954578;28;20124;-79
2022/08/22 02:18:38;;;;;;;72.38;52.17;;;20.90;55.70;;;;;;4952769;28;20031;-79
2022/08/22 02:21:22;;;;;;;73.00;54.47;;;20.90;56.80;;;;;;4969254;28;20034;-79
2022/08/22 02:24:13;;;;;;;76.85;53.50;;;20.80;56.80;;;;;;4952256;28;20387;-79
2022/08/22 02:27:01;;;;;;;76.15;54.05;;;20.80;56.70;;;;;;4968075;28;20039;-79
2022/08/22 02:29:34;;;;;;;75.25;52.95;;;20.80;55.70;;;;;;4969861;28;20062;-78
2022/08/22 02:32:38;;;;;;;75.97;53.95;;;20.80;56.60;;;;;;4968965;28;20038;-78
2022/08/22 02:35:15;;;;;;;74.65;52.70;;;20.80;55.60;;;;;;4900371;29;20522;-78
2022/08/22 02:37:53;;;;;;;73.88;52.88;;;20.80;56.50;;;;;;4899238;29;20040;-79
2022/08/22 02:40:22;;;;;;;74.10;53.10;;;20.80;54.80;;;;;;4899483;29;20044;-78
2022/08/22 02:42:56;;;;;;;74.43;54.55;;;20.80;55.30;;;;;;4885504;29;20123;-78
2022/08/22 02:45:37;;;;;;;73.85;52.83;;;20.80;55.60;;;;;;4884986;29;20103;-78
2022/08/22 02:48:25;;;;;;;78.38;54.40;;;20.80;55.20;;;;;;4900055;29;20044;-78
2022/08/22 02:51:20;;;;;;;72.65;52.22;;;20.70;55.50;;;;;;4882337;29;20060;-78
2022/08/22 02:53:55;;;;;;;79.57;54.72;;;20.70;55.60;;;;;;4880406;29;20098;-78
2022/08/22 02:56:30;;;;;;;77.95;54.67;;;20.80;55.50;;;;;;4898893;29;20427;-78
2022/08/22 02:59:11;;;;;;;83.55;56.63;;;20.80;55.00;;;;;;4876009;29;20484;-79
2022/08/22 03:01:44;;;;;;;79.88;57.35;;;20.70;54.80;;;;;;4900486;29;20029;-78
2022/08/22 03:04:29;;;;;;;83.75;56.85;;;20.70;54.30;;;;;;4883257;29;20096;-79
2022/08/22 03:07:21;;;;;;;77.38;57.08;;;20.70;54.40;;;;;;4898975;29;20043;-79
2022/08/22 03:10:06;;;;;;;79.32;56.83;;;20.70;54.80;;;;;;4893097;29;20511;-78
2022/08/22 03:12:39;;;;;;;80.60;57.78;;;20.70;54.80;;;;;;4967477;28;20093;-79
2022/08/22 03:15:12;;;;;;;85.20;59.58;;;20.60;55.00;;;;;;4951029;28;20046;-79
2022/08/22 03:17:59;;;;;;;82.20;58.63;;;20.60;55.20;;;;;;4966389;28;20086;-79
2022/08/22 03:20:45;;;;;;;86.80;60.65;;;20.60;54.90;;;;;;4968867;28;20042;-79
2022/08/22 03:23:39;;;;;;;87.25;59.47;;;20.60;55.00;;;;;;4931634;28;20039;-80
2022/08/22 03:26:16;;;;;;;86.40;60.80;;;20.60;55.20;;;;;;4947577;28;20134;-81
2022/08/22 03:28:58;;;;;;;87.78;60.58;;;20.60;55.10;;;;;;4947654;28;20046;-79
2022/08/22 03:31:25;;;;;;;89.43;60.63;;;20.60;54.90;;;;;;4967149;28;20046;-79
2022/08/22 03:34:23;;;;;;;90.50;63.70;;;20.60;54.70;;;;;;4948286;28;20038;-79
2022/08/22 03:37:04;;;;;;;87.05;61.88;;;20.60;54.60;;;;;;4967655;28;20031;-79
2022/08/22 03:39:50;;;;;;;88.07;64.40;;;20.60;54.60;;;;;;4968284;28;20050;-82
2022/08/22 03:42:40;;;;;;;89.13;64.18;;;20.60;54.50;;;;;;4964443;28;20109;-83
2022/08/22 03:45:43;;;;;;;90.15;64.03;;;20.60;54.70;;;;;;4948348;28;20070;-82
2022/08/22 03:48:19;;;;;;;96.57;66.75;;;20.50;54.80;;;;;;4947332;28;20501;-85
2022/08/22 03:51:02;;;;;;;95.53;68.35;;;20.60;54.80;;;;;;4964045;28;20046;-84
2022/08/22 03:53:44;;;;;;;92.85;67.20;;;20.60;54.60;;;;;;4947865;28;20126;-84
2022/08/22 03:56:41;;;;;;;94.90;69.70;;;20.60;54.80;;;;;;4916843;28;20756;-83
2022/08/22 03:59:45;;;;;;;101.03;72.63;;;20.60;55.00;;;;;;4963137;28;20038;-84
2022/08/22 04:02:36;;;;;;;103.30;73.82;;;20.60;54.80;;;;;;4932683;28;20121;-85
2022/08/22 04:05:28;;;;;;;100.15;74.13;;;20.60;55.10;;;;;;4947706;28;20558;-84
2022/08/22 04:08:20;;;;;;;105.90;77.43;;;20.60;55.10;;;;;;4950363;28;20031;-84
2022/08/22 04:11:30;;;;;;;108.50;78.82;;;20.60;55.00;;;;;;4968858;28;20058;-84
2022/08/22 04:14:34;;;;;;;112.07;80.82;;;20.60;55.40;;;;;;4948798;28;20035;-84
2022/08/22 04:17:29;;;;;;;107.55;80.45;;;20.50;55.40;;;;;;4933857;28;20035;-87
2022/08/22 04:20:24;;;;;;;111.72;84.68;;;20.50;55.50;;;;;;4966436;28;20411;-86
2022/08/22 04:23:24;;;;;;;117.60;88.25;;;20.50;55.80;;;;;;4933885;28;20035;-84
2022/08/22 04:25:56;;;;;;;116.32;85.97;;;20.60;55.40;;;;;;4946451;28;20031;-82
2022/08/22 04:28:30;;;;;;;111.15;84.85;;;20.60;55.60;;;;;;4960886;28;20501;-87
2022/08/22 04:31:16;;;;;;;117.22;86.03;;;20.70;55.70;;;;;;4951093;28;20042;-85
2022/08/22 04:33:47;;;;;;;;;;;20.70;55.70;;;;;;4967681;28;20035;-83
2022/08/22 04:36:21;;;;;;;113.07;87.18;;;20.70;55.80;;;;;;4969688;28;19916;-81
2022/08/22 04:38:47;;;;;;;120.43;91.20;;;20.70;55.80;;;;;;4949178;28;20386;-81
2022/08/22 04:41:40;;;;;;;119.05;88.00;;;20.70;56.00;;;;;;4968749;28;20042;-82
2022/08/22 04:44:26;;;;;;;120.63;89.97;;;20.70;56.00;;;;;;4943983;28;20406;-76
2022/08/22 04:47:12;;;;;;;124.78;89.93;;;20.80;56.00;;;;;;4965773;28;20404;-81
2022/08/22 04:49:45;;;;;;;122.88;92.25;;;20.80;56.10;;;;;;4951106;28;20038;-79
2022/08/22 04:52:44;;;;;;;120.07;89.90;;;20.90;56.00;;;;;;4966925;28;20836;-80
2022/08/22 04:55:29;;;;;;;124.82;93.30;;;20.90;56.20;;;;;;4966499;28;20498;-79
2022/08/22 04:58:27;;;;;;;125.60;94.40;;;21.00;56.10;;;;;;4950236;28;20133;-81
2022/08/22 05:01:05;;;;;;;131.65;95.15;;;21.00;56.00;;;;;;4965979;28;20039;-79
2022/08/22 05:03:35;;;;;;;128.57;96.30;;;21.00;56.30;;;;;;4966335;28;20143;-79
2022/08/22 05:06:03;;;;;;;132.27;99.18;;;21.00;56.20;;;;;;4966745;28;20077;-80
2022/08/22 05:08:33;;;;;;;126.80;96.10;;;21.10;56.20;;;;;;4948373;28;20038;-80
2022/08/22 05:11:02;;;;;;;125.70;96.93;;;21.30;56.40;;;;;;4964460;28;20058;-79
2022/08/22 05:13:32;;;;;;;131.77;97.80;;;21.50;56.00;;;;;;4966189;28;20030;-79
2022/08/22 05:16:02;;;;;;;132.90;99.18;;;21.70;55.50;;;;;;4948768;28;21046;-77
2022/08/22 05:18:33;;;;;;;137.82;100.72;;;21.80;55.20;;;;;;4966681;28;20035;-80
2022/08/22 05:21:02;;;;;;;131.63;100.13;;;21.90;54.80;;;;;;4964387;28;20525;-79
2022/08/22 05:23:54;;;;;;;136.15;104.63;;;21.80;55.00;;;;;;4944594;28;20402;-79
2022/08/22 05:26:20;;;;;;;135.30;103.85;;;21.90;55.20;;;;;;4964742;28;20533;-80
2022/08/22 05:28:51;;;;;;;138.48;104.57;;;21.90;55.20;;;;;;4965751;28;20049;-80
2022/08/22 05:31:27;;;;;;;141.77;107.70;;;21.80;55.80;;;;;;4965147;28;20101;-77
2022/08/22 05:34:01;;;;;;;143.30;107.93;;;21.80;55.60;;;;;;4965680;28;20584;-78
2022/08/22 05:36:30;;;;;;;142.48;107.80;;;21.90;55.20;;;;;;4965281;28;20089;-79
2022/08/22 05:39:02;;;;;;;151.43;111.45;;;22.10;55.40;;;;;;4966321;28;20062;-80
2022/08/22 05:41:34;;;;;;;146.20;114.63;;;22.10;54.70;;;;;;4964990;28;20089;-80
2022/08/22 05:44:01;;;;;;;158.07;114.88;;;22.10;54.60;;;;;;4966297;28;20034;-79
2022/08/22 05:46:41;;;;;;;146.77;115.22;;;22.10;54.50;;;;;;4965156;28;20042;-80
2022/08/22 05:49:17;;;;;;;161.93;117.53;;;22.20;54.80;;;;;;4965327;28;20386;-79
2022/08/22 05:52:06;;;;;;;165.93;122.95;;;22.20;54.70;;;;;;4950934;28;20394;-79
2022/08/22 05:54:38;;;;;;;158.98;122.97;;;22.30;54.30;;;;;;4953318;28;20026;-78
2022/08/22 05:57:15;;;;;;;160.27;122.05;;;22.30;54.30;;;;;;4949382;28;20421;-77
2022/08/22 05:59:42;;;;;;;165.52;124.53;;;22.30;54.30;;;;;;4970227;28;20149;-76
2022/08/22 06:02:19;;;;;;;167.18;125.55;;;22.30;54.40;;;;;;4969041;28;20035;-79
2022/08/22 06:04:46;;;;;;;168.05;129.27;;;22.40;54.50;;;;;;4968032;28;20037;-79
2022/08/22 06:07:11;;;;;;;172.65;129.02;;;22.50;54.40;;;;;;4969063;28;20034;-80
2022/08/22 06:09:47;;;;;;;166.38;127.80;;;22.70;54.10;;;;;;4953096;28;20031;-81
2022/08/22 06:12:29;;;;;;;165.73;127.60;;;22.90;53.80;;;;;;4951681;28;20075;-83
2022/08/22 06:15:04;;;;;;;171.65;129.13;;;23.10;53.60;;;;;;4969626;28;20039;-83
2022/08/22 06:17:36;;;;;;;177.30;134.48;;;23.30;52.90;;;;;;4969126;28;20035;-83
2022/08/22 06:20:07;;;;;;;169.88;130.75;;;23.30;52.90;;;;;;4969979;28;20407;-80
2022/08/22 06:22:39;;;;;;;162.25;127.13;;;23.50;53.00;;;;;;4969207;28;20542;-84
2022/08/22 06:25:20;;;;;;;163.35;123.40;;;23.50;52.30;;;;;;4945652;28;20528;-84
2022/08/22 06:27:48;;;;;;;157.80;122.15;;;23.70;52.50;;;;;;4950878;28;20154;-79
2022/08/22 06:30:16;;;;;;;159.35;123.40;;;23.70;52.50;;;;;;4968882;28;20047;-78
2022/08/22 06:32:51;;;;;;;156.65;122.93;;;23.80;52.10;;;;;;4969190;28;20034;-79
2022/08/22 06:38:33;;;;;;;154.88;117.25;;;23.80;51.00;;;;;;4969670;28;20442;-80
2022/08/22 06:41:05;;;;;;;161.32;120.07;;;23.80;51.40;;;;;;4968799;28;20070;-78
2022/08/22 06:43:37;;;;;;;154.40;118.40;;;23.70;51.50;;;;;;4947049;28;20042;-80
2022/08/22 06:46:06;;;;;;;145.90;114.20;;;23.60;51.20;;;;;;4968070;28;20066;-81
2022/08/22 06:48:34;;;;;;;157.38;118.35;;;23.60;51.30;;;;;;4952632;28;20038;-81
2022/08/22 06:51:00;;;;;;;159.13;120.43;;;23.70;51.80;;;;;;4968444;28;20417;-82
2022/08/22 06:53:37;;;;;;;156.77;119.95;;;23.70;51.60;;;;;;4958634;28;20032;-81
2022/08/22 06:56:04;;;;;;;166.13;123.32;;;23.70;51.40;;;;;;4968546;28;20031;-82
2022/08/22 06:58:35;;;;;;;159.70;121.72;;;23.70;51.50;;;;;;4950112;28;20161;-80
2022/08/22 07:01:08;;;;;;;158.73;120.00;;;23.70;51.60;;;;;;4949541;28;20061;-81
2022/08/22 07:03:48;;;;;;;149.90;117.03;;;23.70;51.40;;;;;;4968382;28;20033;-80
2022/08/22 07:06:19;;;;;;;157.20;121.75;;;23.80;51.30;;;;;;4968687;28;20490;-79
2022/08/22 07:08:52;;;;;;;161.68;121.15;;;23.90;51.80;;;;;;4951839;28;20034;-79
2022/08/22 07:11:31;;;;;;;160.85;123.20;;;24.00;51.40;;;;;;4968881;28;20072;-79
2022/08/22 07:14:06;;;;;;;155.00;120.30;;;24.10;51.30;;;;;;4947711;28;20031;-81
2022/08/22 07:16:40;;;;;;;160.57;121.97;;;24.10;51.20;;;;;;4947791;28;20034;-83
2022/08/22 07:19:07;;;;;;;162.57;124.00;;;24.20;51.00;;;;;;4969337;28;20612;-83
2022/08/22 07:21:45;;;;;;;165.25;125.85;;;24.30;51.00;;;;;;4950271;28;20664;-82
2022/08/22 07:24:21;;;;;;;161.20;123.80;;;24.40;51.20;;;;;;4968319;28;20051;-80
2022/08/22 07:27:01;;;;;;;160.10;124.53;;;24.50;51.10;;;;;;4968621;28;20046;-77
2022/08/22 07:29:56;;;;;;;154.48;123.40;;;24.50;51.00;;;;;;4950833;28;20069;-78
2022/08/22 07:32:57;;;;;;;159.50;123.70;;;24.60;51.20;;;;;;4972194;28;20050;-80
2022/08/22 07:35:47;;;;;;;157.18;121.70;;;24.70;51.40;;;;;;4970462;28;20042;-80
2022/08/22 07:38:16;;;;;;;159.13;122.88;;;24.80;51.10;;;;;;4972543;28;20038;-79
2022/08/22 07:41:12;;;;;;;157.07;121.43;;;24.80;51.20;;;;;;4954432;28;20109;-78
2022/08/22 07:43:43;;;;;;;;;;;24.80;51.10;;;;;;4958661;28;20518;-79
2022/08/22 07:46:31;;;;;;;148.85;118.65;;;24.90;50.70;;;;;;4953898;28;20447;-80
2022/08/22 07:49:02;;;;;;;152.35;114.80;;;25.00;51.00;;;;;;4951454;28;20034;-78
2022/08/22 07:51:51;;;;;;;143.45;112.28;;;25.00;50.30;;;;;;4955395;28;20534;-77
2022/08/22 07:54:29;;;;;;;148.02;111.78;;;25.10;50.30;;;;;;4961106;28;20042;-78
2022/08/22 07:57:08;;;;;;;140.93;112.03;;;25.20;50.40;;;;;;4973058;28;20053;-79
2022/08/22 07:59:37;;;;;;;134.82;104.85;;;25.20;50.10;;;;;;4978486;28;20598;-79
2022/08/22 08:02:11;;;;;;;137.48;106.65;;;25.30;49.90;;;;;;4976720;28;20430;-80
2022/08/22 08:04:39;;;;;;;130.45;104.43;;;25.30;49.90;;;;;;4959479;28;20090;-85
2022/08/22 08:07:07;;;;;;;144.02;110.47;;;25.40;50.10;;;;;;4970942;28;20509;-81
2022/08/22 08:09:39;;;;;;;137.27;108.90;;;25.40;49.80;;;;;;4951480;28;20031;-79
2022/08/22 08:12:09;;;;;;;137.45;108.90;;;25.50;50.10;;;;;;4947418;28;20055;-79
2022/08/22 08:14:40;;;;;;;135.32;104.47;;;25.60;50.40;;;;;;4934828;29;20113;-81
2022/08/22 08:17:09;;;;;;;140.57;110.68;;;25.60;50.50;;;;;;4953830;28;20525;-82
2022/08/22 08:19:39;;;;;;;136.05;109.80;;;25.60;51.20;;;;;;4953480;28;20032;-81
2022/08/22 08:22:06;;;;;;;137.45;108.80;;;25.60;50.40;;;;;;4949286;28;20410;-82
2022/08/22 08:24:37;;;;;;;140.68;107.63;;;25.60;49.90;;;;;;4936729;29;20406;-82
2022/08/22 08:30:14;;;;;;;125.85;98.95;;;25.60;48.70;;;;;;4945078;28;20035;-87
2022/08/22 08:32:42;;;;;;;127.65;97.88;;;25.60;49.30;;;;;;4934885;29;20044;-85
2022/08/22 08:35:34;;;;;;;119.45;95.38;;;25.60;49.30;;;;;;4942710;29;20089;-86
2022/08/22 08:38:15;;;;;;;126.05;96.88;;;25.70;49.70;;;;;;4948932;28;20042;-81
2022/08/22 08:41:05;;;;;;;124.13;95.22;;;25.70;47.80;;;;;;4952917;28;20118;-85
2022/08/22 08:44:00;;;;;;;121.80;94.00;;;25.80;48.40;;;;;;4932658;29;20035;-83
2022/08/22 08:46:51;;;;;;;124.78;92.97;;;25.80;48.20;;;;;;4949347;28;20036;-83
2022/08/22 08:49:38;;;;;;;118.90;91.95;;;25.90;47.60;;;;;;4936839;29;20035;-81
2022/08/22 08:52:19;;;;;;;113.65;89.00;;;25.90;47.60;;;;;;4930388;29;20043;-80
2022/08/22 08:55:07;;;;;;;114.70;87.88;;;25.90;48.10;;;;;;4953467;28;20117;-81
2022/08/22 08:57:45;;;;;;;111.28;86.22;;;26.00;48.50;;;;;;4949832;28;20047;-85
2022/08/22 09:00:16;;;;;;;118.47;87.97;;;25.90;47.80;;;;;;4952551;29;20074;-84
2022/08/22 09:03:31;;;;;;;112.68;86.45;;;25.90;48.00;;;;;;4950952;28;20039;-83
2022/08/22 09:06:34;;;;;;;113.72;87.30;;;25.90;48.10;;;;;;4913203;29;20044;-84
2022/08/22 09:09:33;;;;;;;103.18;83.32;;;25.90;48.10;;;;;;4936192;29;20043;-88
2022/08/22 09:12:13;;;;;;;104.97;82.45;;;26.00;48.50;;;;;;4881034;29;20264;-85
2022/08/22 09:14:54;;;;;;;114.72;87.35;;;26.00;48.70;;;;;;4878893;29;20507;-86
2022/08/22 09:17:40;;;;;;;109.45;83.05;;;26.00;48.60;;;;;;4896253;29;20039;-81
2022/08/22 09:20:24;;;;;;;107.65;81.65;;;26.00;49.10;;;;;;4892215;29;20040;-80
2022/08/22 09:23:19;;;;;;;101.93;78.28;;;26.00;48.50;;;;;;4888758;29;20399;-80
2022/08/22 09:26:12;;;;;;;101.90;77.50;;;26.00;48.50;;;;;;4897826;29;20090;-81
2022/08/22 09:28:52;;;;;;;98.25;75.38;;;26.00;48.40;;;;;;4898458;29;20039;-81
2022/08/22 09:31:18;;;;;;;101.75;75.57;;;26.00;48.50;;;;;;4897705;29;20115;-80
2022/08/22 09:34:34;;;;;;;104.68;76.90;;;26.10;49.00;;;;;;4886571;29;20047;-81
2022/08/22 09:37:15;;;;;;;101.95;75.05;;;26.10;48.40;;;;;;4860207;29;20124;-79
2022/08/22 09:39:59;;;;;;;92.13;71.25;;;26.20;48.60;;;;;;4859804;29;20056;-79
2022/08/22 09:42:41;;;;;;;93.43;74.53;;;26.20;49.00;;;;;;4860532;29;20055;-79
2022/08/22 09:45:36;;;;;;;97.82;71.03;;;26.20;48.90;;;;;;4861632;29;20111;-79
2022/08/22 09:48:20;;;;;;;95.65;68.72;;;26.30;48.90;;;;;;4852487;29;20180;-80
2022/08/22 09:51:13;;;;;;;85.55;65.22;;;26.30;48.60;;;;;;4895478;29;20119;-81
2022/08/22 09:54:13;;;;;;;82.68;59.60;;;26.30;48.40;;;;;;4884105;29;21636;-78
2022/08/22 09:56:53;;;;;;;78.50;58.15;;;26.40;48.80;;;;;;4906926;29;21473;-79
2022/08/22 09:59:22;;;;;;;78.68;59.72;;;26.40;49.20;;;;;;4906071;29;20040;-79
2022/08/22 10:02:22;;;;;;;83.20;59.97;;;26.30;49.20;;;;;;4889854;29;20575;-81
2022/08/22 10:04:55;;;;;;;75.93;56.92;;;26.40;49.20;;;;;;4907342;29;20310;-80
2022/08/22 10:07:44;;;;;;;80.15;59.08;;;26.50;48.70;;;;;;4906982;29;20103;-80
2022/08/22 10:10:41;;;;;;;75.53;58.45;;;26.50;48.80;;;;;;4831879;29;20415;-80
2022/08/22 10:13:19;;;;;;;79.55;58.53;;;26.50;49.10;;;;;;4831837;29;20623;-79
2022/08/22 10:16:12;;;;;;;81.65;58.83;;;26.60;49.00;;;;;;4834903;29;20531;-78
2022/08/22 10:19:08;;;;;;;72.95;57.63;;;26.60;49.40;;;;;;4847487;29;20577;-80
2022/08/22 10:22:07;;;;;;;80.28;60.85;;;26.50;50.10;;;;;;4834948;29;20053;-79
2022/08/22 10:24:58;;;;;;;79.50;59.05;;;26.60;49.60;;;;;;4851861;29;20067;-80
2022/08/22 10:27:55;;;;;;;84.30;58.53;;;26.60;49.80;;;;;;4850067;29;20047;-80
2022/08/22 10:30:27;;;;;;;75.28;56.05;;;26.70;49.50;;;;;;4850727;29;20128;-79
2022/08/22 10:33:14;;;;;;;71.90;52.83;;;26.70;49.70;;;;;;4851556;29;20085;-80
2022/08/22 10:35:49;;;;;;;72.60;48.35;;;26.70;48.90;;;;;;4836130;29;20580;-79
2022/08/22 10:38:23;;;;;;;66.97;47.20;;;26.70;47.50;;;;;;4850949;29;20127;-81
2022/08/22 10:41:07;;;;;;;63.33;47.05;;;26.80;48.00;;;;;;4839934;29;20577;-80
2022/08/22 10:43:39;;;;;;;62.50;48.90;;;26.80;48.40;;;;;;4852843;29;20626;-80
2022/08/22 10:46:18;;;;;;;65.60;49.05;;;26.80;48.50;;;;;;4857371;28;20037;-80
2022/08/22 10:48:56;;;;;;;63.35;48.08;;;26.80;48.90;;;;;;4947230;28;20085;-88
2022/08/22 10:51:51;;;;;;;57.13;44.38;;;26.90;48.30;;;;;;4948838;28;20121;-80
2022/08/22 10:54:32;;;;;;;58.78;43.25;;;26.90;47.30;;;;;;4958080;28;20493;-80
2022/08/22 10:57:13;;;;;;;56.53;42.97;;;26.90;48.10;;;;;;4952402;28;20035;-81
2022/08/22 10:59:44;;;;;;;57.65;41.05;;;26.90;47.80;;;;;;4970038;28;20418;-80
2022/08/22 11:02:33;;;;;;;52.65;40.90;;;26.90;47.50;;;;;;4969092;28;20039;-81
2022/08/22 11:05:24;;;;;;;56.17;36.92;;;27.00;47.30;;;;;;4957665;28;20043;-82
2022/08/22 11:08:05;;;;;;;44.70;35.42;;;27.00;47.30;;;;;;4962327;28;20425;-83
2022/08/22 11:11:08;;;;;;;45.15;33.40;;;27.10;46.90;;;;;;4969644;28;20047;-81
2022/08/22 11:13:52;;;;;;;47.13;34.80;;;27.20;46.70;;;;;;4968756;28;20042;-81
2022/08/22 11:16:40;;;;;;;43.07;34.27;;;27.10;47.00;;;;;;4950624;28;20039;-80
2022/08/22 11:19:25;;;;;;;44.70;32.72;;;27.20;46.90;;;;;;4970044;28;20337;-81
2022/08/22 11:22:09;;;;;;;42.00;30.70;;;27.20;46.20;;;;;;4966586;28;20063;-80
2022/08/22 11:24:57;;;;;;;39.30;28.75;;;27.20;45.00;;;;;;4968708;28;20053;-79
2022/08/22 11:28:04;;;;;;;38.60;27.58;;;27.20;44.50;;;;;;4878015;29;20136;-82
2022/08/22 11:30:41;;;;;;;52.67;34.15;;;27.20;46.00;;;;;;4878254;29;20047;-81
2022/08/22 11:33:32;;;;;;;49.97;32.50;;;27.20;45.40;;;;;;4890931;29;20044;-81
2022/08/22 11:36:33;;;;;;;38.65;30.52;;;27.30;45.60;;;;;;4890262;29;20083;-81
2022/08/22 11:39:19;;;;;;;39.60;29.10;;;27.30;46.10;;;;;;4873637;29;20073;-81
2022/08/22 11:41:59;;;;;;;37.17;27.67;;;27.30;45.60;;;;;;4887744;29;20531;-81
2022/08/22 11:44:36;;;;;;;36.88;25.85;;;27.30;45.90;;;;;;4890133;29;20522;-81
2022/08/22 11:47:09;;;;;;;31.38;24.77;;;27.30;45.70;;;;;;4877275;29;20119;-80
2022/08/22 11:49:54;;;;;;;31.95;23.98;;;27.40;46.10;;;;;;4888744;29;20093;-79
2022/08/22 11:52:39;;;;;;;34.42;25.77;;;27.30;45.80;;;;;;4889388;29;20044;-81
2022/08/22 11:55:24;;;;;;;36.58;25.75;;;27.40;45.60;;;;;;4888782;29;20037;-80
2022/08/22 11:57:57;;;;;;;39.47;27.20;;;27.40;45.70;;;;;;4888972;29;20051;-80
2022/08/22 12:00:48;;;;;;;37.17;26.17;;;27.40;45.20;;;;;;4889579;29;20033;-81
2022/08/22 12:03:39;;;;;;;34.17;25.30;;;27.50;45.10;;;;;;4888854;29;20144;-80
2022/08/22 12:06:38;;;;;;;37.83;24.90;;;27.50;45.10;;;;;;4966594;28;20134;-81
2022/08/22 12:09:26;;;;;;;37.85;27.00;;;27.50;45.10;;;;;;4966526;28;20074;-79
2022/08/22 12:12:23;;;;;;;33.63;25.95;;;27.50;45.10;;;;;;4966708;28;20046;-80
2022/08/22 12:15:19;;;;;;;40.00;26.00;;;27.50;45.00;;;;;;4966914;28;20030;-80
2022/08/22 12:18:18;;;;;;;33.47;24.40;;;27.50;45.10;;;;;;4968243;28;20089;-89
2022/08/22 12:21:12;;;;;;;31.25;23.38;;;27.60;45.20;;;;;;4966565;28;20489;-81
2022/08/22 12:23:59;;;;;;;30.90;22.73;;;27.60;45.20;;;;;;4958470;28;20076;-82
2022/08/22 12:26:47;;;;;;;28.48;22.58;;;27.60;45.50;;;;;;4967361;28;20066;-82
2022/08/22 12:29:25;;;;;;;28.08;21.90;;;27.70;46.30;;;;;;4967033;28;20039;-81
2022/08/22 12:31:57;;;;;;;22.63;18.58;;;27.60;46.00;;;;;;4945297;28;20047;-81
2022/08/22 12:34:44;;;;;;;24.08;16.25;;;27.70;46.00;;;;;;4965932;28;20541;-80
2022/08/22 12:37:09;;;;;;;22.67;15.55;;;27.70;45.10;;;;;;4966712;28;20089;-79
2022/08/22 12:40:07;;;;;;;20.48;15.32;;;27.70;45.30;;;;;;4949849;28;20039;-78
2022/08/22 12:42:59;;;;;;;19.67;15.07;;;27.80;45.60;;;;;;4950372;28;20062;-80
2022/08/22 12:45:32;;;;;;;19.98;13.95;;;27.70;45.50;;;;;;4949476;28;20050;-80
2022/08/22 12:48:15;;;;;;;13.98;11.27;;;27.80;46.00;;;;;;4957626;28;20429;-79
2022/08/22 12:51:23;;;;;;;16.30;9.82;;;27.80;45.30;;;;;;4949631;28;20031;-79
2022/08/22 12:54:17;;;;;;;11.90;8.32;;;27.80;45.50;;;;;;4947906;28;20027;-79
2022/08/22 12:57:02;;;;;;;15.80;7.75;;;27.80;44.80;;;;;;4969117;28;20031;-80
2022/08/22 12:59:32;;;;;;;20.00;8.45;;;27.80;44.70;;;;;;4933674;28;20038;-78
2022/08/22 13:02:24;;;;;;;14.88;6.95;;;27.80;45.20;;;;;;4967798;28;20031;-82
2022/08/22 13:04:54;;;;;;;8.23;6.20;;;27.90;44.70;;;;;;4966747;28;20585;-80
2022/08/22 13:07:33;;;;;;;8.77;6.18;;;27.80;45.00;;;;;;4966271;28;20130;-82
2022/08/22 13:10:14;;;;;;;10.48;7.40;;;27.80;44.70;;;;;;4964978;28;20509;-84
2022/08/22 13:12:46;;;;;;;9.90;6.95;;;27.90;46.00;;;;;;4966731;28;20047;-82
2022/08/22 13:15:20;;;;;;;12.68;6.68;;;27.80;46.50;;;;;;4948460;28;20026;-83
2022/08/22 13:17:49;;;;;;;10.13;5.93;;;27.80;45.90;;;;;;4949308;28;20424;-82
2022/08/22 13:20:31;;;;;;;9.45;6.40;;;27.80;45.70;;;;;;4967560;28;20042;-80
2022/08/22 13:23:00;;;;;;;8.85;4.95;;;27.80;46.80;;;;;;4958829;28;20180;-76
2022/08/22 13:25:29;;;;;;;18.90;4.20;;;27.80;45.60;;;;;;4966194;28;20054;-78
2022/08/22 13:28:03;;;;;;;9.10;4.40;;;27.80;45.30;;;;;;4965409;28;20031;-78
2022/08/22 13:30:34;;;;;;;11.27;4.90;;;27.80;46.00;;;;;;4967660;28;20039;-78
2022/08/22 13:33:07;;;;;;;8.77;3.80;;;27.80;46.40;;;;;;4966360;28;20038;-77
2022/08/22 13:35:38;;;;;;;8.00;3.20;;;27.80;45.80;;;;;;4965581;28;20035;-78
2022/08/22 13:38:15;;;;;;;11.35;3.47;;;27.80;45.50;;;;;;4965053;28;20480;-77
2022/08/22 13:40:45;;;;;;;6.97;3.92;;;27.80;45.40;;;;;;4965674;28;20597;-76
2022/08/22 13:43:18;;;;;;;11.93;4.32;;;27.80;46.90;;;;;;4945435;28;20034;-76